Tip Oslo — 9HA3944 — position and weather

sailwx.info

Track history (hours):
 
Tides and Currents Weather Stations Pressure Air Temp Water Temp Dewpoint Dewpoint Depression Visibility Wind Speed Wind Dir Waves Ship Positions

Tip Oslo

Last reported at 2018-Feb-18 13:59 UTC. Time now 2018-Feb-19 16:17 UTC.
Position N 37°32' W 000°55'.

Length 120 m; draft 7.6 m.

Type: Cargo ship. MMSI: 256537000.

Date/timePositionNaut miles runAvg speedWind from/ knotsBaromVisibWave heightAir tempDewpointWater temp
2018-Feb-18 13:59N 37°32' W 000°55'613.7
2018-Feb-18 13:30N 37°32' W 000°47'814.1
2018-Feb-18 12:57N 37°33' W 000°37'613.1
2018-Feb-18 12:30N 37°37' W 000°31'713.3
2018-Feb-18 11:59N 37°43' W 000°26'23214.0
2018-Feb-17 19:25N 41°04' E 002°02'613.9
2018-Feb-17 18:59N 41°09' E 002°05'612.1
2018-Feb-17 18:30N 41°15' E 002°09'510.7
2018-Feb-17 18:00N 41°20' E 002°10'2 3.2
2018-Feb-17 17:28N 41°22' E 002°10'0 0.0
2018-Feb-17 16:58N 41°22' E 002°10'0 0.0
2018-Feb-17 16:28N 41°22' E 002°10'0 0.0
2018-Feb-17 15:58N 41°22' E 002°10'0 0.0
2018-Feb-17 15:28N 41°22' E 002°10'0 0.0
2018-Feb-17 14:55N 41°22' E 002°10'0 0.0
2018-Feb-17 14:28N 41°22' E 002°10'0 0.0
2018-Feb-17 13:58N 41°22' E 002°10'0 0.0
2018-Feb-17 13:28N 41°22' E 002°10'0 0.0
2018-Feb-17 12:55N 41°22' E 002°10'0 0.0
2018-Feb-17 12:28N 41°22' E 002°10'0 0.0
2018-Feb-17 11:58N 41°22' E 002°10'0 0.0
2018-Feb-17 11:28N 41°22' E 002°10'0 0.0
2018-Feb-17 10:58N 41°22' E 002°10'0 0.0
2018-Feb-17 10:28N 41°22' E 002°10'0 0.0
2018-Feb-17 09:58N 41°22' E 002°10'0 0.0
2018-Feb-17 09:28N 41°22' E 002°10'0 0.0
2018-Feb-17 08:55N 41°22' E 002°10'0 0.0
2018-Feb-17 08:28N 41°22' E 002°10'0 0.0
2018-Feb-17 03:28N 41°22' E 002°10'0 0.0
2018-Feb-17 02:58N 41°22' E 002°10'0 0.0
2018-Feb-17 02:28N 41°22' E 002°10'0 0.0
2018-Feb-17 01:58N 41°22' E 002°10'0 0.0
2018-Feb-17 01:28N 41°22' E 002°10'0 0.0
2018-Feb-17 00:58N 41°22' E 002°10'0 0.0
2018-Feb-17 00:28N 41°22' E 002°10'0 0.0
2018-Feb-17 00:01N 41°22' E 002°10'0 0.0
2018-Feb-16 23:31N 41°22' E 002°10'0 0.0
2018-Feb-16 23:00N 41°22' E 002°10'0 0.0
2018-Feb-16 22:30N 41°22' E 002°10'0 0.0
2018-Feb-16 22:00N 41°22' E 002°10'0 0.0
2018-Feb-16 21:30N 41°22' E 002°10'0 0.0
2018-Feb-16 21:00N 41°22' E 002°10'1 1.6
2018-Feb-16 20:31N 41°21' E 002°10'4 8.3
2018-Feb-16 20:01N 41°17' E 002°11'5 9.3
2018-Feb-16 19:30N 41°12' E 002°09'713.0
2018-Feb-16 18:57N 41°06' E 002°05'23213.1
2018-Feb-16 01:08N 37°43' W 000°23'214.0
2018-Feb-16 01:00N 37°42' W 000°24'713.7
2018-Feb-16 00:30N 37°36' W 000°29'913.4
2018-Feb-15 23:50N 37°29' W 000°37'413.2
2018-Feb-15 23:30N 37°27' W 000°41'712.8
2018-Feb-15 23:00N 37°22' W 000°47'22912.7
2018-Feb-15 05:01N 36°00' W 005°13'015.5
2018-Feb-15 05:00N 36°00' W 005°13'815.4
2018-Feb-15 04:30N 35°59' W 005°23'714.9
2018-Feb-15 04:00N 35°57' W 005°32'  
2018-Feb-12 21:11N 35°58' W 005°30'2 0.0
2018-Feb-11 06:48N 35°57' W 005°32'3 9.5
2018-Feb-11 06:30N 35°59' W 005°30'4 7.6
2018-Feb-11 06:00N 35°60' W 005°25'4 7.2
2018-Feb-11 05:30N 36°01' W 005°21'4 7.3
2018-Feb-11 05:00N 36°02' W 005°17'221 9.2
2018-Feb-10 05:02N 37°18' W 000°57'312.1
2018-Feb-10 04:48N 37°20' W 000°55'612.1
2018-Feb-10 04:17N 37°24' W 000°49'312.1
2018-Feb-10 04:00N 37°26' W 000°46'611.9
2018-Feb-10 03:30N 37°30' W 000°40'611.5
2018-Feb-10 03:00N 37°34' W 000°35'611.1
2018-Feb-10 02:30N 37°39' W 000°31'611.2
2018-Feb-10 02:00N 37°43' W 000°27'  
Track history (hours):
 
Tides and Currents Weather Stations Pressure Air Temp Water Temp Dewpoint Dewpoint Depression Visibility Wind Speed Wind Dir Waves Ship Positions

Tip Oslo

Last reported at 2018-Feb-18 13:59 UTC. Time now 2018-Feb-19 16:17 UTC.
Position N 37°32' W 000°55'.

Length 120 m; draft 7.6 m.

Type: Cargo ship. MMSI: 256537000.

Date/timePositionNaut miles runAvg speedWind from/ knotsBaromVisibWave heightAir tempDewpointWater temp
2018-Feb-18 13:59N 37°32' W 000°55'613.7
2018-Feb-18 13:30N 37°32' W 000°47'814.1
2018-Feb-18 12:57N 37°33' W 000°37'613.1
2018-Feb-18 12:30N 37°37' W 000°31'713.3
2018-Feb-18 11:59N 37°43' W 000°26'23214.0
2018-Feb-17 19:25N 41°04' E 002°02'613.9
2018-Feb-17 18:59N 41°09' E 002°05'612.1
2018-Feb-17 18:30N 41°15' E 002°09'510.7
2018-Feb-17 18:00N 41°20' E 002°10'2 3.2
2018-Feb-17 17:28N 41°22' E 002°10'0 0.0
2018-Feb-17 16:58N 41°22' E 002°10'0 0.0
2018-Feb-17 16:28N 41°22' E 002°10'0 0.0
2018-Feb-17 15:58N 41°22' E 002°10'0 0.0
2018-Feb-17 15:28N 41°22' E 002°10'0 0.0
2018-Feb-17 14:55N 41°22' E 002°10'0 0.0
2018-Feb-17 14:28N 41°22' E 002°10'0 0.0
2018-Feb-17 13:58N 41°22' E 002°10'0 0.0
2018-Feb-17 13:28N 41°22' E 002°10'0 0.0
2018-Feb-17 12:55N 41°22' E 002°10'0 0.0
2018-Feb-17 12:28N 41°22' E 002°10'0 0.0
2018-Feb-17 11:58N 41°22' E 002°10'0 0.0
2018-Feb-17 11:28N 41°22' E 002°10'0 0.0
2018-Feb-17 10:58N 41°22' E 002°10'0 0.0
2018-Feb-17 10:28N 41°22' E 002°10'0 0.0
2018-Feb-17 09:58N 41°22' E 002°10'0 0.0
2018-Feb-17 09:28N 41°22' E 002°10'0 0.0
2018-Feb-17 08:55N 41°22' E 002°10'0 0.0
2018-Feb-17 08:28N 41°22' E 002°10'0 0.0
2018-Feb-17 03:28N 41°22' E 002°10'0 0.0
2018-Feb-17 02:58N 41°22' E 002°10'0 0.0
2018-Feb-17 02:28N 41°22' E 002°10'0 0.0
2018-Feb-17 01:58N 41°22' E 002°10'0 0.0
2018-Feb-17 01:28N 41°22' E 002°10'0 0.0
2018-Feb-17 00:58N 41°22' E 002°10'0 0.0
2018-Feb-17 00:28N 41°22' E 002°10'0 0.0
2018-Feb-17 00:01N 41°22' E 002°10'0 0.0
2018-Feb-16 23:31N 41°22' E 002°10'0 0.0
2018-Feb-16 23:00N 41°22' E 002°10'0 0.0
2018-Feb-16 22:30N 41°22' E 002°10'0 0.0
2018-Feb-16 22:00N 41°22' E 002°10'0 0.0
2018-Feb-16 21:30N 41°22' E 002°10'0 0.0
2018-Feb-16 21:00N 41°22' E 002°10'1 1.6
2018-Feb-16 20:31N 41°21' E 002°10'4 8.3
2018-Feb-16 20:01N 41°17' E 002°11'5 9.3
2018-Feb-16 19:30N 41°12' E 002°09'713.0
2018-Feb-16 18:57N 41°06' E 002°05'23213.1
2018-Feb-16 01:08N 37°43' W 000°23'214.0
2018-Feb-16 01:00N 37°42' W 000°24'713.7
2018-Feb-16 00:30N 37°36' W 000°29'913.4
2018-Feb-15 23:50N 37°29' W 000°37'413.2
2018-Feb-15 23:30N 37°27' W 000°41'712.8
2018-Feb-15 23:00N 37°22' W 000°47'22912.7
2018-Feb-15 05:01N 36°00' W 005°13'015.5
2018-Feb-15 05:00N 36°00' W 005°13'815.4
2018-Feb-15 04:30N 35°59' W 005°23'714.9
2018-Feb-15 04:00N 35°57' W 005°32'  
2018-Feb-12 21:11N 35°58' W 005°30'2 0.0
2018-Feb-11 06:48N 35°57' W 005°32'3 9.5
2018-Feb-11 06:30N 35°59' W 005°30'4 7.6
2018-Feb-11 06:00N 35°60' W 005°25'4 7.2
2018-Feb-11 05:30N 36°01' W 005°21'4 7.3
2018-Feb-11 05:00N 36°02' W 005°17'221 9.2
2018-Feb-10 05:02N 37°18' W 000°57'312.1
2018-Feb-10 04:48N 37°20' W 000°55'612.1
2018-Feb-10 04:17N 37°24' W 000°49'312.1
2018-Feb-10 04:00N 37°26' W 000°46'611.9
2018-Feb-10 03:30N 37°30' W 000°40'611.5
2018-Feb-10 03:00N 37°34' W 000°35'611.1
2018-Feb-10 02:30N 37°39' W 000°31'611.2
2018-Feb-10 02:00N 37°43' W 000°27'  

Dump ship's entire track history